Weather at Erie International Tom Ridge Field

Public forecast

Using degrees Fahrenheit for public forecast. Weather courtesy of forecast.io.

Current aviation weather report (METAR) for Erie International Tom Ridge Field

2024/06/22 07:51 (retrieved 48 minutes ago)

KERI 220751Z AUTO 00000KT 9SM CLR 23/20 A3007 RMK AO2 SLP178 T02280200

Aviation forecast (TAF) for Erie International Tom Ridge Field

2024/06/22 06:39 (retrieved 2 hours ago)

TAF KERI 220537Z 2206/2306 19003KT P6SM SCT250 FM221600 27008KT P6SM FEW050 FM230000 19008KT P6SM BKN250